sensor_id;sensor_type;location;lat;lon;timestamp;P1;durP1;ratioP1;P2;durP2;ratioP2
56114;SDS011;41988;53.020;6.576;2022-11-04T00:01:57;30.77;;;20.13;;
56114;SDS011;41988;53.020;6.576;2022-11-04T00:04:42;24.02;;;18.45;;
56114;SDS011;41988;53.020;6.576;2022-11-04T00:07:26;25.42;;;18.25;;
56114;SDS011;41988;53.020;6.576;2022-11-04T00:10:30;23.75;;;17.65;;
56114;SDS011;41988;53.020;6.576;2022-11-04T00:13:33;24.83;;;17.63;;
56114;SDS011;41988;53.020;6.576;2022-11-04T00:16:18;24.83;;;16.92;;
56114;SDS011;41988;53.020;6.576;2022-11-04T00:19:22;20.42;;;15.68;;
56114;SDS011;41988;53.020;6.576;2022-11-04T00:22:07;18.88;;;14.88;;
56114;SDS011;41988;53.020;6.576;2022-11-04T00:25:10;18.13;;;14.07;;
56114;SDS011;41988;53.020;6.576;2022-11-04T00:28:15;12.90;;;11.40;;
56114;SDS011;41988;53.020;6.576;2022-11-04T00:31:19;11.65;;;9.13;;
56114;SDS011;41988;53.020;6.576;2022-11-04T00:34:23;10.03;;;7.67;;
56114;SDS011;41988;53.020;6.576;2022-11-04T00:37:07;9.48;;;6.18;;
56114;SDS011;41988;53.020;6.576;2022-11-04T00:39:52;9.15;;;5.68;;
56114;SDS011;41988;53.020;6.576;2022-11-04T00:42:37;7.28;;;4.80;;
56114;SDS011;41988;53.020;6.576;2022-11-04T00:45:22;5.75;;;4.03;;
56114;SDS011;41988;53.020;6.576;2022-11-04T00:48:06;5.07;;;3.72;;
56114;SDS011;41988;53.020;6.576;2022-11-04T00:50:51;4.68;;;3.40;;
56114;SDS011;41988;53.020;6.576;2022-11-04T00:53:36;4.40;;;2.90;;
56114;SDS011;41988;53.020;6.576;2022-11-04T00:56:20;4.78;;;3.08;;
56114;SDS011;41988;53.020;6.576;2022-11-04T00:59:05;5.25;;;3.75;;
56114;SDS011;41988;53.020;6.576;2022-11-04T01:01:50;5.80;;;3.35;;
56114;SDS011;41988;53.020;6.576;2022-11-04T01:04:35;6.22;;;3.40;;
56114;SDS011;41988;53.020;6.576;2022-11-04T01:07:19;7.60;;;3.17;;
56114;SDS011;41988;53.020;6.576;2022-11-04T01:10:04;4.80;;;3.05;;
56114;SDS011;41988;53.020;6.576;2022-11-04T01:12:50;4.13;;;2.22;;
56114;SDS011;41988;53.020;6.576;2022-11-04T01:15:35;7.10;;;2.92;;
56114;SDS011;41988;53.020;6.576;2022-11-04T01:18:20;10.77;;;2.40;;
56114;SDS011;41988;53.020;6.576;2022-11-04T01:21:05;3.63;;;2.20;;
56114;SDS011;41988;53.020;6.576;2022-11-04T01:23:50;3.92;;;1.83;;
56114;SDS011;41988;53.020;6.576;2022-11-04T01:26:36;5.28;;;2.17;;
56114;SDS011;41988;53.020;6.576;2022-11-04T01:29:20;4.47;;;1.90;;
56114;SDS011;41988;53.020;6.576;2022-11-04T01:32:04;4.90;;;1.83;;
56114;SDS011;41988;53.020;6.576;2022-11-04T01:34:49;7.00;;;1.77;;
56114;SDS011;41988;53.020;6.576;2022-11-04T01:37:33;2.35;;;1.25;;
56114;SDS011;41988;53.020;6.576;2022-11-04T01:40:18;3.78;;;1.48;;
56114;SDS011;41988;53.020;6.576;2022-11-04T01:43:02;2.22;;;1.10;;
56114;SDS011;41988;53.020;6.576;2022-11-04T01:45:53;4.40;;;1.10;;
56114;SDS011;41988;53.020;6.576;2022-11-04T01:48:41;3.67;;;1.40;;
56114;SDS011;41988;53.020;6.576;2022-11-04T01:51:25;1.67;;;0.95;;
56114;SDS011;41988;53.020;6.576;2022-11-04T01:54:12;11.65;;;2.30;;
56114;SDS011;41988;53.020;6.576;2022-11-04T01:56:57;4.22;;;0.98;;
56114;SDS011;41988;53.020;6.576;2022-11-04T01:59:45;4.13;;;1.10;;
56114;SDS011;41988;53.020;6.576;2022-11-04T02:02:30;4.53;;;1.15;;
56114;SDS011;41988;53.020;6.576;2022-11-04T02:05:15;1.77;;;0.90;;
56114;SDS011;41988;53.020;6.576;2022-11-04T02:08:01;3.88;;;1.20;;
56114;SDS011;41988;53.020;6.576;2022-11-04T02:10:47;6.90;;;1.40;;
56114;SDS011;41988;53.020;6.576;2022-11-04T02:13:36;4.15;;;1.20;;
56114;SDS011;41988;53.020;6.576;2022-11-04T02:16:31;11.60;;;2.20;;
56114;SDS011;41988;53.020;6.576;2022-11-04T02:19:35;2.20;;;1.02;;
56114;SDS011;41988;53.020;6.576;2022-11-04T02:34:33;3.97;;;0.98;;
56114;SDS011;41988;53.020;6.576;2022-11-04T02:44:06;4.28;;;0.90;;
56114;SDS011;41988;53.020;6.576;2022-11-04T02:46:37;5.78;;;0.90;;
56114;SDS011;41988;53.020;6.576;2022-11-04T02:53:06;3.53;;;1.10;;
56114;SDS011;41988;53.020;6.576;2022-11-04T02:55:57;4.85;;;0.98;;
56114;SDS011;41988;53.020;6.576;2022-11-04T02:58:49;1.65;;;0.82;;
56114;SDS011;41988;53.020;6.576;2022-11-04T03:01:42;1.63;;;0.80;;
56114;SDS011;41988;53.020;6.576;2022-11-04T03:04:30;4.00;;;1.23;;
56114;SDS011;41988;53.020;6.576;2022-11-04T03:07:21;3.47;;;0.85;;
56114;SDS011;41988;53.020;6.576;2022-11-04T03:10:11;3.70;;;0.90;;
56114;SDS011;41988;53.020;6.576;2022-11-04T03:16:54;7.05;;;1.75;;
56114;SDS011;41988;53.020;6.576;2022-11-04T03:22:39;3.03;;;1.00;;
56114;SDS011;41988;53.020;6.576;2022-11-04T03:25:37;4.00;;;1.48;;
56114;SDS011;41988;53.020;6.576;2022-11-04T03:28:46;2.78;;;1.13;;
56114;SDS011;41988;53.020;6.576;2022-11-04T03:31:42;4.65;;;2.05;;
56114;SDS011;41988;53.020;6.576;2022-11-04T03:34:31;3.00;;;1.08;;
56114;SDS011;41988;53.020;6.576;2022-11-04T03:37:16;2.92;;;1.63;;
56114;SDS011;41988;53.020;6.576;2022-11-04T03:40:01;4.00;;;1.25;;
56114;SDS011;41988;53.020;6.576;2022-11-04T03:42:55;5.57;;;1.30;;
56114;SDS011;41988;53.020;6.576;2022-11-04T03:45:53;3.42;;;1.10;;
56114;SDS011;41988;53.020;6.576;2022-11-04T03:48:38;6.28;;;1.35;;
56114;SDS011;41988;53.020;6.576;2022-11-04T03:51:24;4.78;;;1.20;;
56114;SDS011;41988;53.020;6.576;2022-11-04T03:54:09;3.63;;;1.42;;
56114;SDS011;41988;53.020;6.576;2022-11-04T04:00:10;3.92;;;1.30;;
56114;SDS011;41988;53.020;6.576;2022-11-04T04:03:04;3.75;;;1.05;;
56114;SDS011;41988;53.020;6.576;2022-11-04T04:06:07;8.80;;;1.67;;
56114;SDS011;41988;53.020;6.576;2022-11-04T04:08:56;3.42;;;1.30;;
56114;SDS011;41988;53.020;6.576;2022-11-04T04:11:57;3.90;;;1.75;;
56114;SDS011;41988;53.020;6.576;2022-11-04T04:14:49;5.90;;;1.58;;
56114;SDS011;41988;53.020;6.576;2022-11-04T04:17:51;3.65;;;1.05;;
56114;SDS011;41988;53.020;6.576;2022-11-04T04:20:38;5.93;;;1.15;;
56114;SDS011;41988;53.020;6.576;2022-11-04T04:23:26;3.47;;;1.00;;
56114;SDS011;41988;53.020;6.576;2022-11-04T04:26:31;3.00;;;0.85;;
56114;SDS011;41988;53.020;6.576;2022-11-04T04:29:37;2.70;;;1.30;;
56114;SDS011;41988;53.020;6.576;2022-11-04T04:32:23;4.35;;;1.17;;
56114;SDS011;41988;53.020;6.576;2022-11-04T04:35:10;5.97;;;1.00;;
56114;SDS011;41988;53.020;6.576;2022-11-04T04:38:21;6.03;;;1.02;;
56114;SDS011;41988;53.020;6.576;2022-11-04T04:41:26;5.05;;;1.00;;
56114;SDS011;41988;53.020;6.576;2022-11-04T04:44:32;3.80;;;0.80;;
56114;SDS011;41988;53.020;6.576;2022-11-04T04:47:40;3.03;;;0.98;;
56114;SDS011;41988;53.020;6.576;2022-11-04T04:50:27;1.60;;;0.63;;
56114;SDS011;41988;53.020;6.576;2022-11-04T04:53:16;6.03;;;2.65;;
56114;SDS011;41988;53.020;6.576;2022-11-04T04:56:00;2.95;;;0.65;;
56114;SDS011;41988;53.020;6.576;2022-11-04T04:58:45;6.93;;;0.70;;
56114;SDS011;41988;53.020;6.576;2022-11-04T05:01:30;2.50;;;0.70;;
56114;SDS011;41988;53.020;6.576;2022-11-04T05:04:14;1.73;;;0.60;;
56114;SDS011;41988;53.020;6.576;2022-11-04T05:06:59;1.05;;;0.50;;
56114;SDS011;41988;53.020;6.576;2022-11-04T05:09:43;3.78;;;1.08;;
56114;SDS011;41988;53.020;6.576;2022-11-04T05:12:28;1.23;;;0.60;;
56114;SDS011;41988;53.020;6.576;2022-11-04T05:15:33;2.92;;;0.80;;
56114;SDS011;41988;53.020;6.576;2022-11-04T05:18:18;2.92;;;0.80;;
56114;SDS011;41988;53.020;6.576;2022-11-04T05:21:06;5.93;;;1.65;;
56114;SDS011;41988;53.020;6.576;2022-11-04T05:23:54;4.05;;;0.95;;
56114;SDS011;41988;53.020;6.576;2022-11-04T05:26:39;5.88;;;1.00;;
56114;SDS011;41988;53.020;6.576;2022-11-04T05:29:23;6.97;;;2.15;;
56114;SDS011;41988;53.020;6.576;2022-11-04T05:32:08;3.70;;;0.95;;
56114;SDS011;41988;53.020;6.576;2022-11-04T05:34:52;4.47;;;0.90;;
56114;SDS011;41988;53.020;6.576;2022-11-04T05:37:37;1.77;;;0.65;;
56114;SDS011;41988;53.020;6.576;2022-11-04T05:40:22;7.20;;;1.20;;
56114;SDS011;41988;53.020;6.576;2022-11-04T05:43:06;9.85;;;1.00;;
56114;SDS011;41988;53.020;6.576;2022-11-04T05:45:51;1.63;;;0.73;;
56114;SDS011;41988;53.020;6.576;2022-11-04T05:48:35;3.00;;;1.20;;
56114;SDS011;41988;53.020;6.576;2022-11-04T05:51:21;2.90;;;1.00;;
56114;SDS011;41988;53.020;6.576;2022-11-04T05:54:06;3.38;;;0.88;;
56114;SDS011;41988;53.020;6.576;2022-11-04T05:56:51;3.70;;;1.15;;
56114;SDS011;41988;53.020;6.576;2022-11-04T05:59:36;3.90;;;1.20;;
56114;SDS011;41988;53.020;6.576;2022-11-04T06:02:20;4.55;;;1.33;;
56114;SDS011;41988;53.020;6.576;2022-11-04T06:05:05;3.53;;;1.35;;
56114;SDS011;41988;53.020;6.576;2022-11-04T06:07:50;5.00;;;1.55;;
56114;SDS011;41988;53.020;6.576;2022-11-04T06:10:34;3.50;;;1.10;;
56114;SDS011;41988;53.020;6.576;2022-11-04T06:13:19;7.30;;;1.85;;
56114;SDS011;41988;53.020;6.576;2022-11-04T06:16:04;3.25;;;1.08;;
56114;SDS011;41988;53.020;6.576;2022-11-04T06:18:49;3.55;;;1.40;;
56114;SDS011;41988;53.020;6.576;2022-11-04T06:21:34;4.72;;;1.10;;
56114;SDS011;41988;53.020;6.576;2022-11-04T06:24:21;2.17;;;1.05;;
56114;SDS011;41988;53.020;6.576;2022-11-04T06:27:06;4.50;;;1.20;;
56114;SDS011;41988;53.020;6.576;2022-11-04T06:29:50;2.67;;;1.00;;
56114;SDS011;41988;53.020;6.576;2022-11-04T06:32:36;3.08;;;1.30;;
56114;SDS011;41988;53.020;6.576;2022-11-04T06:35:21;2.58;;;1.13;;
56114;SDS011;41988;53.020;6.576;2022-11-04T06:38:05;5.40;;;1.10;;
56114;SDS011;41988;53.020;6.576;2022-11-04T06:40:50;7.82;;;1.10;;
56114;SDS011;41988;53.020;6.576;2022-11-04T06:43:34;4.57;;;1.27;;
56114;SDS011;41988;53.020;6.576;2022-11-04T06:46:23;6.68;;;1.40;;
56114;SDS011;41988;53.020;6.576;2022-11-04T06:49:12;3.08;;;1.10;;
56114;SDS011;41988;53.020;6.576;2022-11-04T06:51:57;1.98;;;1.00;;
56114;SDS011;41988;53.020;6.576;2022-11-04T06:54:44;5.57;;;1.10;;
56114;SDS011;41988;53.020;6.576;2022-11-04T06:57:30;2.45;;;1.00;;
56114;SDS011;41988;53.020;6.576;2022-11-04T07:00:15;2.90;;;1.00;;
56114;SDS011;41988;53.020;6.576;2022-11-04T07:03:00;4.65;;;1.13;;
56114;SDS011;41988;53.020;6.576;2022-11-04T07:05:44;1.98;;;0.98;;
56114;SDS011;41988;53.020;6.576;2022-11-04T07:08:30;2.70;;;1.10;;
56114;SDS011;41988;53.020;6.576;2022-11-04T07:11:15;7.13;;;1.27;;
56114;SDS011;41988;53.020;6.576;2022-11-04T07:14:01;4.53;;;1.10;;
56114;SDS011;41988;53.020;6.576;2022-11-04T07:16:48;3.10;;;1.08;;
56114;SDS011;41988;53.020;6.576;2022-11-04T07:19:34;5.55;;;1.20;;
56114;SDS011;41988;53.020;6.576;2022-11-04T07:22:18;5.60;;;1.00;;
56114;SDS011;41988;53.020;6.576;2022-11-04T07:25:03;3.60;;;1.02;;
56114;SDS011;41988;53.020;6.576;2022-11-04T07:27:48;4.70;;;1.38;;
56114;SDS011;41988;53.020;6.576;2022-11-04T07:30:32;2.53;;;1.13;;
56114;SDS011;41988;53.020;6.576;2022-11-04T07:33:17;6.05;;;1.30;;
56114;SDS011;41988;53.020;6.576;2022-11-04T07:36:02;5.65;;;1.17;;
56114;SDS011;41988;53.020;6.576;2022-11-04T07:38:47;3.63;;;1.30;;
56114;SDS011;41988;53.020;6.576;2022-11-04T07:41:32;5.80;;;1.50;;
56114;SDS011;41988;53.020;6.576;2022-11-04T07:44:17;3.42;;;1.50;;
56114;SDS011;41988;53.020;6.576;2022-11-04T07:47:01;5.03;;;1.60;;
56114;SDS011;41988;53.020;6.576;2022-11-04T07:49:46;5.63;;;1.75;;
56114;SDS011;41988;53.020;6.576;2022-11-04T07:52:30;6.50;;;1.70;;
56114;SDS011;41988;53.020;6.576;2022-11-04T07:55:16;8.98;;;1.73;;
56114;SDS011;41988;53.020;6.576;2022-11-04T07:58:01;3.58;;;1.75;;
56114;SDS011;41988;53.020;6.576;2022-11-04T08:00:47;4.57;;;1.85;;
56114;SDS011;41988;53.020;6.576;2022-11-04T08:03:32;4.20;;;1.90;;
56114;SDS011;41988;53.020;6.576;2022-11-04T08:06:17;3.60;;;1.80;;
56114;SDS011;41988;53.020;6.576;2022-11-04T08:09:03;4.10;;;1.77;;
56114;SDS011;41988;53.020;6.576;2022-11-04T08:11:47;3.95;;;1.80;;
56114;SDS011;41988;53.020;6.576;2022-11-04T08:14:32;4.25;;;1.73;;
56114;SDS011;41988;53.020;6.576;2022-11-04T08:17:17;6.03;;;2.05;;
56114;SDS011;41988;53.020;6.576;2022-11-04T08:20:01;5.78;;;2.08;;
56114;SDS011;41988;53.020;6.576;2022-11-04T08:22:48;5.32;;;1.77;;
56114;SDS011;41988;53.020;6.576;2022-11-04T08:25:32;5.55;;;1.70;;
56114;SDS011;41988;53.020;6.576;2022-11-04T08:28:17;5.05;;;1.98;;
56114;SDS011;41988;53.020;6.576;2022-11-04T08:33:46;3.38;;;1.80;;
56114;SDS011;41988;53.020;6.576;2022-11-04T08:36:32;4.28;;;1.60;;
56114;SDS011;41988;53.020;6.576;2022-11-04T08:39:19;3.97;;;1.58;;
56114;SDS011;41988;53.020;6.576;2022-11-04T08:42:03;3.90;;;1.67;;
56114;SDS011;41988;53.020;6.576;2022-11-04T08:44:52;4.38;;;2.00;;
56114;SDS011;41988;53.020;6.576;2022-11-04T08:47:37;6.13;;;1.77;;
56114;SDS011;41988;53.020;6.576;2022-11-04T08:50:21;4.20;;;1.40;;
56114;SDS011;41988;53.020;6.576;2022-11-04T08:53:10;3.15;;;1.45;;
56114;SDS011;41988;53.020;6.576;2022-11-04T08:55:55;3.88;;;1.40;;
56114;SDS011;41988;53.020;6.576;2022-11-04T08:58:39;8.45;;;2.45;;
56114;SDS011;41988;53.020;6.576;2022-11-04T09:01:25;3.45;;;1.52;;
56114;SDS011;41988;53.020;6.576;2022-11-04T09:04:11;2.92;;;1.25;;
56114;SDS011;41988;53.020;6.576;2022-11-04T09:06:56;1.85;;;0.90;;
56114;SDS011;41988;53.020;6.576;2022-11-04T09:09:41;5.18;;;1.73;;
56114;SDS011;41988;53.020;6.576;2022-11-04T09:12:26;2.05;;;0.80;;
56114;SDS011;41988;53.020;6.576;2022-11-04T09:15:10;4.57;;;1.20;;
56114;SDS011;41988;53.020;6.576;2022-11-04T09:17:55;3.75;;;1.15;;
56114;SDS011;41988;53.020;6.576;2022-11-04T09:20:40;2.40;;;1.02;;
56114;SDS011;41988;53.020;6.576;2022-11-04T09:23:25;3.90;;;1.08;;
56114;SDS011;41988;53.020;6.576;2022-11-04T09:26:11;3.55;;;1.05;;
56114;SDS011;41988;53.020;6.576;2022-11-04T09:28:57;3.00;;;1.40;;
56114;SDS011;41988;53.020;6.576;2022-11-04T09:31:42;2.63;;;1.10;;
56114;SDS011;41988;53.020;6.576;2022-11-04T09:34:26;3.58;;;1.30;;
56114;SDS011;41988;53.020;6.576;2022-11-04T09:37:11;5.47;;;1.52;;
56114;SDS011;41988;53.020;6.576;2022-11-04T09:39:55;2.67;;;1.10;;
56114;SDS011;41988;53.020;6.576;2022-11-04T09:42:52;4.47;;;1.23;;
56114;SDS011;41988;53.020;6.576;2022-11-04T09:45:42;3.58;;;1.02;;
56114;SDS011;41988;53.020;6.576;2022-11-04T09:48:28;5.22;;;1.20;;
56114;SDS011;41988;53.020;6.576;2022-11-04T09:51:18;3.45;;;0.90;;
56114;SDS011;41988;53.020;6.576;2022-11-04T09:54:15;3.55;;;1.40;;
56114;SDS011;41988;53.020;6.576;2022-11-04T09:57:07;2.60;;;1.30;;
56114;SDS011;41988;53.020;6.576;2022-11-04T09:59:59;4.10;;;1.20;;
56114;SDS011;41988;53.020;6.576;2022-11-04T10:09:00;3.50;;;1.13;;
56114;SDS011;41988;53.020;6.576;2022-11-04T10:27:27;2.95;;;1.30;;
56114;SDS011;41988;53.020;6.576;2022-11-04T10:30:19;3.40;;;1.35;;
56114;SDS011;41988;53.020;6.576;2022-11-04T10:33:09;6.82;;;1.70;;
56114;SDS011;41988;53.020;6.576;2022-11-04T10:36:08;4.55;;;1.77;;
56114;SDS011;41988;53.020;6.576;2022-11-04T10:38:54;3.38;;;1.40;;
56114;SDS011;41988;53.020;6.576;2022-11-04T10:41:40;3.95;;;1.50;;
56114;SDS011;41988;53.020;6.576;2022-11-04T10:44:25;4.68;;;1.45;;
56114;SDS011;41988;53.020;6.576;2022-11-04T10:50:14;5.30;;;1.48;;
56114;SDS011;41988;53.020;6.576;2022-11-04T10:53:19;4.82;;;1.38;;
56114;SDS011;41988;53.020;6.576;2022-11-04T10:56:11;4.25;;;1.80;;
56114;SDS011;41988;53.020;6.576;2022-11-04T10:58:59;4.10;;;1.70;;
56114;SDS011;41988;53.020;6.576;2022-11-04T11:01:59;4.97;;;1.95;;
56114;SDS011;41988;53.020;6.576;2022-11-04T11:04:44;3.60;;;1.70;;
56114;SDS011;41988;53.020;6.576;2022-11-04T11:07:34;11.65;;;2.38;;
56114;SDS011;41988;53.020;6.576;2022-11-04T11:13:05;6.72;;;2.60;;
56114;SDS011;41988;53.020;6.576;2022-11-04T11:16:27;5.25;;;2.22;;
56114;SDS011;41988;53.020;6.576;2022-11-04T11:21:56;4.05;;;1.70;;
56114;SDS011;41988;53.020;6.576;2022-11-04T11:24:41;4.05;;;1.75;;
56114;SDS011;41988;53.020;6.576;2022-11-04T11:27:25;6.20;;;1.90;;
56114;SDS011;41988;53.020;6.576;2022-11-04T11:30:17;5.47;;;1.60;;
